createdAt,value
2018-08-11T00:00:22.204Z,1.57
2018-08-11T00:02:49.714Z,1.80
2018-08-11T00:05:17.644Z,1.83
2018-08-11T00:07:45.518Z,1.50
2018-08-11T00:10:12.979Z,1.57
2018-08-11T00:12:40.468Z,1.40
2018-08-11T00:15:10.619Z,0.97
2018-08-11T00:17:38.484Z,1.30
2018-08-11T00:20:07.924Z,1.10
2018-08-11T00:22:35.313Z,1.43
2018-08-11T00:25:02.821Z,1.10
2018-08-11T00:27:31.057Z,1.20
2018-08-11T00:29:59.917Z,1.10
2018-08-11T00:32:27.399Z,1.30
2018-08-11T00:34:55.095Z,1.47
2018-08-11T00:37:22.695Z,1.47
2018-08-11T00:39:50.197Z,1.20
2018-08-11T00:42:17.737Z,1.33
2018-08-11T00:44:45.141Z,1.40
2018-08-11T00:47:12.634Z,0.90
2018-08-11T00:49:40.155Z,1.00
2018-08-11T00:52:07.553Z,1.23
2018-08-11T00:54:35.012Z,1.20
2018-08-11T00:57:02.519Z,1.10
2018-08-11T00:59:30.014Z,1.50
2018-08-11T01:01:57.494Z,1.53
2018-08-11T01:04:25.734Z,1.70
2018-08-11T01:06:53.202Z,1.53
2018-08-11T01:09:20.673Z,1.53
2018-08-11T01:11:48.120Z,1.57
2018-08-11T01:14:15.714Z,2.13
2018-08-11T01:16:43.142Z,2.10
2018-08-11T01:19:10.605Z,1.97
2018-08-11T01:21:38.098Z,1.83
2018-08-11T01:24:05.484Z,2.30
2018-08-11T01:26:32.969Z,2.03
2018-08-11T01:29:00.466Z,1.80
2018-08-11T01:31:27.856Z,2.37
2018-08-11T01:33:55.321Z,2.30
2018-08-11T01:36:22.826Z,2.03
2018-08-11T01:38:50.174Z,2.00
2018-08-11T01:41:17.657Z,2.57
2018-08-11T01:43:45.107Z,2.23
2018-08-11T01:46:12.498Z,2.30
2018-08-11T01:48:39.975Z,2.40
2018-08-11T01:51:07.970Z,2.13
2018-08-11T01:53:35.468Z,2.10
2018-08-11T01:56:02.893Z,1.77
2018-08-11T01:58:30.361Z,2.00
2018-08-11T02:00:57.772Z,2.00
2018-08-11T02:03:25.282Z,2.93
2018-08-11T02:05:52.700Z,2.37
2018-08-11T02:08:20.093Z,2.60
2018-08-11T02:10:47.508Z,2.17
2018-08-11T02:13:14.996Z,2.10
2018-08-11T02:15:42.493Z,2.23
2018-08-11T02:18:09.876Z,2.30
2018-08-11T02:20:37.351Z,2.60
2018-08-11T02:23:04.860Z,2.20
2018-08-11T02:25:32.284Z,2.33
2018-08-11T02:27:59.694Z,2.53
2018-08-11T02:30:27.278Z,2.30
2018-08-11T02:32:54.725Z,2.37
2018-08-11T02:35:22.161Z,2.50
2018-08-11T02:37:49.648Z,2.33
2018-08-11T02:40:17.059Z,2.23
2018-08-11T02:42:44.542Z,1.87
2018-08-11T02:45:13.871Z,2.43
2018-08-11T02:47:41.393Z,2.13
2018-08-11T02:50:10.034Z,2.10
2018-08-11T02:52:37.827Z,1.97
2018-08-11T02:55:05.264Z,2.30
2018-08-11T02:57:32.660Z,3.37
2018-08-11T03:00:00.093Z,1.80
2018-08-11T03:02:27.610Z,2.10
2018-08-11T03:04:54.950Z,2.17
2018-08-11T03:07:22.431Z,2.23
2018-08-11T03:09:49.885Z,1.97
2018-08-11T03:12:17.337Z,2.20
2018-08-11T03:14:44.849Z,1.87
2018-08-11T03:17:12.232Z,2.13
2018-08-11T03:19:39.752Z,1.70
2018-08-11T03:22:07.174Z,1.50
2018-08-11T03:24:34.506Z,1.50
2018-08-11T03:27:01.898Z,2.00
2018-08-11T03:29:29.361Z,1.80
2018-08-11T03:31:56.796Z,2.03
2018-08-11T03:34:24.228Z,1.93
2018-08-11T03:36:51.812Z,1.80
2018-08-11T03:39:19.224Z,1.33
2018-08-11T03:41:46.626Z,1.90
2018-08-11T03:44:14.023Z,1.40
2018-08-11T03:46:41.482Z,1.63
2018-08-11T03:49:08.880Z,1.43
2018-08-11T03:51:36.320Z,1.47
2018-08-11T03:54:03.874Z,1.50
2018-08-11T03:56:31.380Z,1.67
2018-08-11T03:58:58.822Z,1.70
2018-08-11T04:01:26.230Z,1.70
2018-08-11T04:03:53.638Z,1.60
2018-08-11T04:06:21.134Z,1.47
2018-08-11T04:08:48.492Z,1.73
2018-08-11T04:11:15.975Z,1.57
2018-08-11T04:13:43.418Z,1.80
2018-08-11T04:16:10.788Z,1.30
2018-08-11T04:18:38.225Z,1.43
2018-08-11T04:21:05.667Z,1.70
2018-08-11T04:23:33.070Z,1.53
2018-08-11T04:26:00.569Z,1.80
2018-08-11T04:28:28.153Z,1.50
2018-08-11T04:30:55.656Z,1.80
2018-08-11T04:33:23.097Z,1.60
2018-08-11T04:35:50.495Z,1.73
2018-08-11T04:38:17.944Z,1.50
2018-08-11T04:40:45.449Z,1.23
2018-08-11T04:43:12.914Z,2.20
2018-08-11T04:45:40.281Z,1.90
2018-08-11T04:48:07.815Z,1.80
2018-08-11T04:50:35.237Z,1.43
2018-08-11T04:53:02.668Z,1.73
2018-08-11T04:55:30.112Z,1.60
2018-08-11T04:57:57.527Z,2.10
2018-08-11T05:00:24.983Z,1.50
2018-08-11T05:02:52.455Z,1.50
2018-08-11T05:05:19.926Z,2.20
2018-08-11T05:07:47.329Z,1.53
2018-08-11T05:10:14.679Z,1.70
2018-08-11T05:12:42.063Z,1.13
2018-08-11T05:15:09.512Z,1.67
2018-08-11T05:17:37.022Z,1.53
2018-08-11T05:20:04.378Z,1.70
2018-08-11T05:22:31.885Z,1.30
2018-08-11T05:24:59.550Z,1.60
2018-08-11T05:27:27.128Z,1.50
2018-08-11T05:29:54.621Z,1.27
2018-08-11T05:32:22.151Z,1.50
2018-08-11T05:34:49.564Z,1.40
2018-08-11T05:37:16.968Z,1.50
2018-08-11T05:39:44.403Z,1.50
2018-08-11T05:42:11.731Z,1.37
2018-08-11T05:44:39.182Z,1.30
2018-08-11T05:47:06.708Z,1.80
2018-08-11T05:49:34.200Z,1.50
2018-08-11T05:52:01.703Z,1.70
2018-08-11T05:54:29.166Z,1.73
2018-08-11T05:56:56.602Z,1.80
2018-08-11T05:59:24.003Z,1.70
2018-08-11T06:01:51.449Z,1.50
2018-08-11T06:04:18.782Z,1.50
2018-08-11T06:06:46.192Z,1.67
2018-08-11T06:09:13.708Z,1.47
2018-08-11T06:11:41.151Z,1.37
2018-08-11T06:14:09.273Z,1.50
2018-08-11T06:16:36.785Z,1.37
2018-08-11T06:19:04.346Z,1.70
2018-08-11T06:21:31.769Z,1.27
2018-08-11T06:23:59.282Z,1.30
2018-08-11T06:26:26.749Z,1.40
2018-08-11T06:28:54.165Z,1.93
2018-08-11T06:31:21.681Z,1.57
2018-08-11T06:33:49.060Z,1.60
2018-08-11T06:36:16.631Z,1.40
2018-08-11T06:38:44.046Z,1.50
2018-08-11T06:41:11.528Z,1.33
2018-08-11T06:43:38.980Z,1.27
2018-08-11T06:46:06.370Z,1.20
2018-08-11T06:48:33.787Z,1.30
2018-08-11T06:51:01.256Z,1.33
2018-08-11T06:53:28.774Z,1.50
2018-08-11T06:55:56.220Z,1.47
2018-08-11T06:58:23.695Z,1.43
2018-08-11T07:00:51.067Z,1.80
2018-08-11T07:03:18.541Z,1.50
2018-08-11T07:05:45.925Z,1.90
2018-08-11T07:08:13.346Z,1.77
2018-08-11T07:10:40.741Z,1.23
2018-08-11T07:13:08.256Z,1.80
2018-08-11T07:15:35.722Z,1.90
2018-08-11T07:18:03.218Z,1.27
2018-08-11T07:20:30.712Z,1.30
2018-08-11T07:22:58.197Z,1.47
2018-08-11T07:25:25.685Z,1.50
2018-08-11T07:27:53.067Z,1.57
2018-08-11T07:30:20.652Z,1.27
2018-08-11T07:32:48.056Z,1.70
2018-08-11T07:35:15.452Z,1.43
2018-08-11T07:37:42.931Z,1.60
2018-08-11T07:40:10.446Z,1.30
2018-08-11T07:42:37.962Z,1.50
2018-08-11T07:45:05.463Z,1.90
2018-08-11T07:47:33.013Z,1.70
2018-08-11T07:50:00.346Z,1.30
2018-08-11T07:52:27.816Z,1.47
2018-08-11T07:54:55.352Z,1.30
2018-08-11T07:57:22.809Z,1.10
2018-08-11T07:59:50.312Z,1.50
2018-08-11T08:02:17.796Z,1.83
2018-08-11T08:04:45.171Z,1.83
2018-08-11T08:07:12.546Z,1.27
2018-08-11T08:09:39.962Z,1.60
2018-08-11T08:12:07.448Z,1.20
2018-08-11T08:14:34.867Z,1.43
2018-08-11T08:17:02.349Z,1.10
2018-08-11T08:19:29.942Z,1.23
2018-08-11T08:21:57.417Z,1.50
2018-08-11T08:24:24.816Z,1.27
2018-08-11T08:26:52.382Z,1.00
2018-08-11T08:29:19.812Z,1.10
2018-08-11T08:31:47.212Z,1.30
2018-08-11T08:34:14.643Z,1.47
2018-08-11T08:36:42.019Z,1.40
2018-08-11T08:39:10.980Z,1.27
2018-08-11T08:41:38.437Z,1.10
2018-08-11T08:44:05.924Z,1.43
2018-08-11T08:46:33.416Z,1.37
2018-08-11T08:49:00.872Z,1.20
2018-08-11T08:51:28.279Z,1.03
2018-08-11T08:53:55.644Z,1.30
2018-08-11T08:56:22.976Z,0.90
2018-08-11T08:58:50.425Z,1.13
2018-08-11T09:01:17.864Z,1.17
2018-08-11T09:03:45.473Z,0.90
2018-08-11T09:06:12.985Z,1.40
2018-08-11T09:08:40.412Z,1.33
2018-08-11T09:11:07.818Z,1.50
2018-08-11T09:13:35.271Z,1.40
2018-08-11T09:16:02.938Z,1.17
2018-08-11T09:18:30.401Z,1.10
2018-08-11T09:20:57.826Z,0.80
2018-08-11T09:23:25.280Z,1.67
2018-08-11T09:25:52.650Z,1.00
2018-08-11T09:28:20.085Z,0.80
2018-08-11T09:30:47.511Z,1.43
2018-08-11T09:33:14.925Z,2.03
2018-08-11T09:35:42.346Z,1.27
2018-08-11T09:38:09.844Z,1.10
2018-08-11T09:40:37.272Z,1.50
2018-08-11T09:43:04.866Z,1.00
2018-08-11T09:45:32.378Z,1.50
2018-08-11T09:47:59.808Z,0.83
2018-08-11T09:50:27.286Z,1.10
2018-08-11T09:52:54.698Z,1.60
2018-08-11T09:55:22.174Z,1.27
2018-08-11T09:57:49.623Z,1.40
2018-08-11T10:00:21.603Z,1.43
2018-08-11T10:02:49.227Z,1.10
2018-08-11T10:05:16.694Z,1.30
2018-08-11T10:07:44.117Z,1.20
2018-08-11T10:10:11.456Z,1.27
2018-08-11T10:12:38.938Z,1.30
2018-08-11T10:15:06.450Z,1.23
2018-08-11T10:17:33.932Z,1.33
2018-08-11T10:20:01.342Z,1.03
2018-08-11T10:22:28.744Z,1.30
2018-08-11T10:24:56.116Z,1.40
2018-08-11T10:27:23.765Z,1.00
2018-08-11T10:29:51.184Z,1.00
2018-08-11T10:32:18.700Z,1.20
2018-08-11T10:34:46.160Z,1.20
2018-08-11T10:37:13.664Z,1.10
2018-08-11T10:39:41.098Z,0.90
2018-08-11T10:42:08.455Z,1.10
2018-08-11T10:44:35.894Z,1.60
2018-08-11T10:47:03.429Z,1.20
2018-08-11T10:49:30.875Z,1.10
2018-08-11T10:51:58.289Z,0.97
2018-08-11T10:54:25.688Z,1.00
2018-08-11T10:56:53.052Z,1.07
2018-08-11T10:59:20.461Z,1.00
2018-08-11T11:01:47.888Z,0.80
2018-08-11T11:04:15.373Z,1.30
2018-08-11T11:06:42.759Z,0.97
2018-08-11T11:09:10.584Z,1.10
2018-08-11T11:11:38.127Z,1.47
2018-08-11T11:14:05.596Z,1.03
2018-08-11T11:16:33.010Z,1.10
2018-08-11T11:19:00.452Z,0.90
2018-08-11T11:21:27.930Z,1.10
2018-08-11T11:23:55.413Z,0.90
2018-08-11T11:26:22.857Z,1.07
2018-08-11T11:28:50.262Z,0.90
2018-08-11T11:31:17.710Z,1.03
2018-08-11T11:33:45.119Z,1.45
2018-08-11T11:36:12.546Z,1.20
2018-08-11T11:38:40.073Z,1.07
2018-08-11T11:41:07.433Z,1.10
2018-08-11T11:43:34.860Z,0.83
2018-08-11T11:46:02.281Z,1.10
2018-08-11T11:48:29.710Z,1.00
2018-08-11T11:50:57.052Z,1.53
2018-08-11T11:53:24.483Z,0.97
2018-08-11T11:55:51.967Z,1.20
2018-08-11T11:58:19.347Z,1.07
2018-08-11T12:00:46.868Z,0.90
2018-08-11T12:03:14.332Z,1.37
2018-08-11T12:05:41.783Z,1.20
2018-08-11T12:08:09.112Z,1.10
2018-08-11T12:10:36.531Z,0.90
2018-08-11T12:13:04.033Z,0.97
2018-08-11T12:15:31.451Z,0.90
2018-08-11T12:17:58.757Z,0.93
2018-08-11T12:20:26.197Z,0.73
2018-08-11T12:22:53.713Z,1.00
2018-08-11T12:25:21.209Z,1.00
2018-08-11T12:27:48.613Z,1.03
2018-08-11T12:30:16.056Z,1.10
2018-08-11T12:32:43.456Z,1.03
2018-08-11T12:35:10.893Z,0.75
2018-08-11T12:37:38.270Z,1.27
2018-08-11T12:40:05.820Z,0.90
2018-08-11T12:42:33.251Z,1.50
2018-08-11T12:45:00.658Z,1.07
2018-08-11T12:47:28.095Z,1.60
2018-08-11T12:49:55.458Z,1.40
2018-08-11T12:52:22.905Z,1.23
2018-08-11T12:54:50.298Z,1.33
2018-08-11T12:57:17.821Z,1.03
2018-08-11T12:59:45.277Z,1.00
2018-08-11T13:02:12.755Z,1.30
2018-08-11T13:04:40.134Z,1.10
2018-08-11T13:07:07.569Z,1.17
2018-08-11T13:09:35.192Z,1.23
2018-08-11T13:12:02.624Z,1.30
2018-08-11T13:14:30.075Z,1.30
2018-08-11T13:16:57.547Z,1.10
2018-08-11T13:19:24.966Z,0.90
2018-08-11T13:21:52.470Z,1.00
2018-08-11T13:24:19.952Z,1.10
2018-08-11T13:26:47.360Z,1.03
2018-08-11T13:29:14.740Z,1.17
2018-08-11T13:31:42.188Z,1.00
2018-08-11T13:34:09.629Z,1.30
2018-08-11T13:36:37.104Z,1.00
2018-08-11T13:39:06.806Z,1.30
2018-08-11T13:41:39.492Z,1.10
2018-08-11T13:44:07.006Z,1.13
2018-08-11T13:46:34.413Z,0.87
2018-08-11T13:49:01.855Z,0.77
2018-08-11T13:51:29.271Z,1.03
2018-08-11T13:53:56.761Z,1.20
2018-08-11T13:56:24.114Z,1.00
2018-08-11T13:58:51.469Z,1.13
2018-08-11T14:01:18.877Z,1.00
2018-08-11T14:03:46.265Z,1.20
2018-08-11T14:06:13.810Z,1.00
2018-08-11T14:08:41.232Z,0.97
2018-08-11T14:11:08.705Z,1.17
2018-08-11T14:13:36.196Z,1.20
2018-08-11T14:16:03.608Z,1.37
2018-08-11T14:18:31.018Z,0.90
2018-08-11T14:20:58.456Z,0.90
2018-08-11T14:23:26.120Z,1.10
2018-08-11T14:25:53.670Z,1.07
2018-08-11T14:28:21.014Z,1.47
2018-08-11T14:30:48.490Z,1.30
2018-08-11T14:33:15.830Z,1.20
2018-08-11T14:35:43.253Z,1.17
2018-08-11T14:38:10.743Z,0.97
2018-08-11T14:40:38.153Z,1.20
2018-08-11T14:43:05.820Z,0.93
2018-08-11T14:45:33.303Z,1.10
2018-08-11T14:48:00.660Z,0.93
2018-08-11T14:50:28.110Z,0.93
2018-08-11T14:52:55.572Z,1.10
2018-08-11T14:55:23.116Z,1.20
2018-08-11T14:57:50.584Z,1.40
2018-08-11T15:00:18.032Z,1.27
2018-08-11T15:02:45.525Z,1.23
2018-08-11T15:05:13.039Z,1.40
2018-08-11T15:07:40.522Z,1.20
2018-08-11T15:10:08.881Z,1.30
2018-08-11T15:12:36.485Z,0.97
2018-08-11T15:15:04.894Z,1.03
2018-08-11T15:17:32.297Z,1.50
2018-08-11T15:19:59.739Z,1.40
2018-08-11T15:22:27.156Z,1.27
2018-08-11T15:24:54.582Z,1.07
2018-08-11T15:27:22.035Z,1.40
2018-08-11T15:29:49.451Z,1.20
2018-08-11T15:32:16.821Z,1.20
2018-08-11T15:34:44.377Z,1.20
2018-08-11T15:37:11.843Z,1.30
2018-08-11T15:39:39.288Z,1.03
2018-08-11T15:42:06.701Z,1.20
2018-08-11T15:44:34.086Z,1.40
2018-08-11T15:47:01.566Z,1.40
2018-08-11T15:49:29.004Z,1.07
2018-08-11T15:51:56.443Z,1.17
2018-08-11T15:54:24.025Z,1.33
2018-08-11T15:56:51.308Z,1.47
2018-08-11T15:59:18.713Z,1.13
2018-08-11T16:01:46.096Z,1.17
2018-08-11T16:04:13.603Z,1.10
2018-08-11T16:06:40.985Z,1.27
2018-08-11T16:09:09.310Z,1.43
2018-08-11T16:11:36.826Z,1.13
2018-08-11T16:14:05.148Z,1.37
2018-08-11T16:16:32.587Z,1.17
2018-08-11T16:18:59.934Z,1.40
2018-08-11T16:21:27.375Z,1.33
2018-08-11T16:23:54.728Z,1.13
2018-08-11T16:26:22.171Z,1.20
2018-08-11T16:28:49.862Z,1.80
2018-08-11T16:31:17.216Z,1.60
2018-08-11T16:33:44.652Z,1.30
2018-08-11T16:36:12.139Z,1.40
2018-08-11T16:38:39.566Z,1.37
2018-08-11T16:41:07.306Z,1.20
2018-08-11T16:43:34.730Z,1.13
2018-08-11T16:46:02.134Z,1.17
2018-08-11T16:48:29.576Z,1.10
2018-08-11T16:50:57.006Z,1.17
2018-08-11T16:53:24.481Z,1.37
2018-08-11T16:55:51.998Z,1.00
2018-08-11T16:58:19.465Z,1.10
2018-08-11T17:00:46.939Z,1.20
2018-08-11T17:03:14.357Z,1.53
2018-08-11T17:05:41.850Z,1.00
2018-08-11T17:08:16.034Z,1.00
2018-08-11T17:10:43.488Z,1.67
2018-08-11T17:13:10.961Z,1.43
2018-08-11T17:15:38.429Z,1.60
2018-08-11T17:18:05.822Z,1.37
2018-08-11T17:20:33.264Z,1.20
2018-08-11T17:23:00.627Z,1.00
2018-08-11T17:25:27.979Z,1.37
2018-08-11T17:27:55.583Z,1.40
2018-08-11T17:30:22.991Z,1.13
2018-08-11T17:32:50.441Z,0.97
2018-08-11T17:35:17.809Z,1.17
2018-08-11T17:37:45.290Z,1.80
2018-08-11T17:40:12.702Z,1.20
2018-08-11T17:42:40.134Z,1.50
2018-08-11T17:45:07.635Z,0.87
2018-08-11T17:47:35.014Z,1.20
2018-08-11T17:50:02.557Z,1.30
2018-08-11T17:52:29.918Z,1.10
2018-08-11T17:54:57.390Z,1.50
2018-08-11T17:57:24.742Z,1.50
2018-08-11T17:59:52.197Z,1.23
2018-08-11T18:02:19.639Z,1.47
2018-08-11T18:04:47.113Z,0.90
2018-08-11T18:07:14.575Z,1.00
2018-08-11T18:09:41.968Z,1.20
2018-08-11T18:12:09.362Z,0.90
2018-08-11T18:14:36.896Z,1.03
2018-08-11T18:17:04.235Z,1.53
2018-08-11T18:19:31.696Z,1.10
2018-08-11T18:21:59.142Z,1.40
2018-08-11T18:24:26.532Z,1.20
2018-08-11T18:26:53.940Z,1.83
2018-08-11T18:29:21.346Z,1.57
2018-08-11T18:31:48.827Z,1.50
2018-08-11T18:34:16.199Z,1.20
2018-08-11T18:36:43.582Z,1.20
2018-08-11T18:39:12.639Z,1.30
2018-08-11T18:41:40.193Z,1.10
2018-08-11T18:44:07.739Z,1.00
2018-08-11T18:46:35.156Z,1.33
2018-08-11T18:49:02.532Z,0.97
2018-08-11T18:51:30.042Z,1.20
2018-08-11T18:53:57.441Z,1.33
2018-08-11T18:56:24.948Z,1.37
2018-08-11T18:58:52.400Z,1.43
2018-08-11T19:01:19.844Z,1.30
2018-08-11T19:03:47.364Z,1.00
2018-08-11T19:06:14.814Z,1.77
2018-08-11T19:08:42.272Z,1.20
2018-08-11T19:11:09.760Z,1.03
2018-08-11T19:13:37.278Z,1.00
2018-08-11T19:16:04.969Z,1.03
2018-08-11T19:18:32.456Z,1.40
2018-08-11T19:20:59.899Z,1.10
2018-08-11T19:23:27.317Z,1.37
2018-08-11T19:25:54.823Z,1.50
2018-08-11T19:28:22.277Z,1.20
2018-08-11T19:30:49.803Z,1.50
2018-08-11T19:33:17.267Z,1.10
2018-08-11T19:35:44.758Z,1.17
2018-08-11T19:38:12.155Z,1.00
2018-08-11T19:40:39.607Z,1.53
2018-08-11T19:43:06.995Z,1.27
2018-08-11T19:45:34.400Z,1.50
2018-08-11T19:48:01.800Z,1.33
2018-08-11T19:50:29.309Z,1.00
2018-08-11T19:52:56.737Z,1.30
2018-08-11T19:55:24.257Z,1.37
2018-08-11T19:57:51.679Z,1.60
2018-08-11T20:00:19.149Z,1.80
2018-08-11T20:02:46.616Z,1.20
2018-08-11T20:05:14.089Z,1.10
2018-08-11T20:07:41.675Z,1.40
2018-08-11T20:10:09.189Z,1.23
2018-08-11T20:12:37.232Z,1.10
2018-08-11T20:15:06.097Z,1.40
2018-08-11T20:17:33.708Z,1.50
2018-08-11T20:20:01.219Z,1.33
2018-08-11T20:22:28.617Z,1.30
2018-08-11T20:24:56.136Z,1.67
2018-08-11T20:27:23.638Z,1.47
2018-08-11T20:29:51.112Z,1.40
2018-08-11T20:32:18.605Z,1.30
2018-08-11T20:34:46.122Z,1.30
2018-08-11T20:37:13.637Z,1.23
2018-08-11T20:39:41.614Z,1.37
2018-08-11T20:42:09.174Z,1.30
2018-08-11T20:44:36.845Z,1.47
2018-08-11T20:47:04.231Z,1.33
2018-08-11T20:49:31.802Z,1.47
2018-08-11T20:51:59.344Z,1.13
2018-08-11T20:54:27.388Z,1.60
2018-08-11T20:56:54.866Z,1.20
2018-08-11T20:59:22.312Z,1.60
2018-08-11T21:01:49.776Z,1.53
2018-08-11T21:04:17.320Z,1.23
2018-08-11T21:06:44.779Z,1.40
2018-08-11T21:09:12.929Z,1.10
2018-08-11T21:11:40.424Z,1.67
2018-08-11T21:14:08.709Z,1.23
2018-08-11T21:16:36.219Z,1.23
2018-08-11T21:19:03.707Z,1.57
2018-08-11T21:21:31.153Z,1.37
2018-08-11T21:23:58.806Z,1.63
2018-08-11T21:26:26.253Z,1.67
2018-08-11T21:28:53.759Z,2.20
2018-08-11T21:31:21.331Z,1.97
2018-08-11T21:33:48.756Z,1.73
2018-08-11T21:36:16.313Z,1.33
2018-08-11T21:38:43.801Z,1.40
2018-08-11T21:41:11.347Z,1.50
2018-08-11T21:43:38.822Z,1.40
2018-08-11T21:46:06.316Z,1.00
2018-08-11T21:48:33.842Z,1.43
2018-08-11T21:51:01.415Z,1.40
2018-08-11T21:53:28.836Z,1.63
2018-08-11T21:55:56.297Z,1.60
2018-08-11T21:58:23.751Z,1.43
2018-08-11T22:00:56.634Z,1.67
2018-08-11T22:03:24.368Z,1.90
2018-08-11T22:05:51.764Z,1.70
2018-08-11T22:08:19.354Z,1.50
2018-08-11T22:10:47.217Z,2.07
2018-08-11T22:13:14.736Z,1.43
2018-08-11T22:15:42.194Z,1.50
2018-08-11T22:18:09.710Z,1.77
2018-08-11T22:20:37.188Z,2.10
2018-08-11T22:23:04.708Z,1.80
2018-08-11T22:25:32.123Z,1.57
2018-08-11T22:27:59.535Z,1.80
2018-08-11T22:30:26.998Z,1.90
2018-08-11T22:32:54.493Z,1.67
2018-08-11T22:35:22.042Z,1.27
2018-08-11T22:37:49.504Z,1.40
2018-08-11T22:40:16.994Z,1.70
2018-08-11T22:42:44.459Z,1.47
2018-08-11T22:45:12.198Z,1.60
2018-08-11T22:47:39.808Z,1.53
2018-08-11T22:50:10.090Z,1.70
2018-08-11T22:52:38.054Z,1.93
2018-08-11T22:55:05.864Z,1.37
2018-08-11T22:57:33.475Z,1.50
2018-08-11T23:00:00.948Z,1.37
2018-08-11T23:02:28.463Z,2.30
2018-08-11T23:04:55.923Z,1.67
2018-08-11T23:07:23.407Z,2.10
2018-08-11T23:09:50.832Z,1.60
2018-08-11T23:12:18.276Z,1.90
2018-08-11T23:14:45.751Z,2.00
2018-08-11T23:17:13.215Z,1.90
2018-08-11T23:19:40.675Z,2.00
2018-08-11T23:22:08.315Z,1.90
2018-08-11T23:24:35.795Z,1.53
2018-08-11T23:27:03.347Z,2.30
2018-08-11T23:29:30.769Z,2.20
2018-08-11T23:31:58.239Z,2.87
2018-08-11T23:34:25.610Z,2.00
2018-08-11T23:36:53.136Z,2.03
2018-08-11T23:39:20.532Z,1.73
2018-08-11T23:41:48.015Z,1.50
2018-08-11T23:44:15.492Z,1.50
2018-08-11T23:46:42.940Z,1.80
2018-08-11T23:49:10.384Z,1.60
2018-08-11T23:51:37.830Z,1.30
2018-08-11T23:54:05.335Z,1.37
2018-08-11T23:56:32.855Z,1.60
2018-08-11T23:59:00.304Z,1.37
